KHQM/HQM METAR and TAF weather

Enter ICAO airport designator
Station Type Date Time Source
KHQM METAR 2022/08/16 17:53 UTC NOAA

KHQM 161753Z AUTO 21007KT 10SM CLR 21/16 A3010 RMK AO2 SLP195 T02060161 10206 20150 58002


Station Type Date Time Source
KHQM Decoded METAR 2022/08/16 17:53 UTC NOAA

HOQUIAM BOWERMAN AIRPORT, WA, United States (KHQM) 46-58N 123-56W 7M
Aug 16, 2022 - 01:53 PM EDT / 2022.08.16 1753 UTC
Wind: from the SSW (210 degrees) at 8 MPH (7 KT):0
Visibility: 10 mile(s):0
Sky conditions: clear
Temperature: 69.1 F (20.6 C)
Dew Point: 61.0 F (16.1 C)
Relative Humidity: 75%
Pressure (altimeter): 30.1 in. Hg (1019 hPa)
Pressure tendency: 0.01 inches (0.2 hPa) lower than three hours ago
ob: KHQM 161753Z AUTO 21007KT 10SM CLR 21/16 A3010 RMK AO2 SLP195 T02060161 10206 20150 58002
cycle: 18

Station Type Date Time Source
KHQM TAF 2022/08/16 18:22 UTC NOAA

TAF KHQM 161720Z 1618/1718 21006KT P6SM FEW010 BKN015
FM162200 26012KT P6SM FEW250
FM170700 27007KT P6SM OVC009
FM171200 35003KT 4SM BR OVC003

Example: see airport list